Apple Creek, MO

12:11 AM CDT on October 26, 2014 (GMT -0500)
Northwest Jackson | Change Station
CLOSE
Current Station
Personal Weather Station
Location: Jackson, MO
Elevation: 465 ft
Nearby Weather Stations
Active Advisory: Special Statement

Elev 465 ft 37.39 °N, 89.68 °W | Updated 1 second ago

Clear
Clear
58.5 °F
Feels Like 58.5 °F
N
0.0
Wind Variable Wind from NNE
Gusts 0.0 mph

Today
High -- | Low -- °F
--% Chance of Precip.
Yesterday
High -- | Low -- °F
Precip. -- in
7:17 AM 6:07 PM
Waxing Crescent, 6% visible
Pressure 30.00 in
Visibility 3.0 miles
Clouds Clear
Dew Point 50 °F
Humidity 73%
Rainfall 0.00 in
Snow Depth Not available.
UV 0 out of 12
Pollen 2.40 out of 12
Air Quality Not available.
Flu Activity No Activity
METAR KCGI 260453Z AUTO 00000KT 3SM BR CLR 14/13 A3000 RMK AO2 SLP157 T01390133 TSNO

More Conditions Fewer Conditions

Pressure 30.00 in
Visibility 3.0 miles
Clouds Clear
Dew Point 50 °F
Humidity 73%
Rainfall 0.00 in
Snow Depth Not available.
UV 0 out of 12
Pollen 2.40 out of 12
Air Quality Not available.
Flu Activity No Activity
METAR KCGI 260453Z AUTO 00000KT 3SM BR CLR 14/13 A3000 RMK AO2 SLP157 T01390133 TSNO

More Conditions Fewer Conditions

10-Day Weather Forecast

Almanac

Astronomy

Oct. 26, 2014 Rise Set
Actual Time 7:17 AM CDT 6:07 PM CDT
Civil Twilight 6:50 AM CDT 6:34 PM CDT
Nautical Twilight 6:20 AM CDT 7:04 PM CDT
Astronomical Twilight 5:49 AM CDT 7:35 PM CDT
Moon 9:53 AM CDT 8:21 PM CDT
Length of Visible Light 11h 43m
Length of Day
10h 49m
Tomorrow will be 2m 12s shorter.
Waxing Crescent, 6% of the Moon is Illuminated
Today
Waxing Crescent
Oct 30
First Quarter
Nov 6
Full
Nov 14
Last Quarter
Nov 22
New

Today's Extremes

State Highs State Lows

Community

WunderPhotos

Upload Photos

1,765,111 photos uploaded!

Nearby

Snow Depth

Station Depth Elevation
No new snow has been reported.

Earthquake Activity

City Distance Mag. Time & Date
No recent earthquake activity has been reported nearby.
Minimum magnitude displayed is 2.5.

Coastal Water Temperatures

Place Temperature
No Stations Reporting

Nearby Weather Stations